createdAt,value
2019-05-15T00:00:44.049Z,0.00
2019-05-15T00:01:44.042Z,0.00
2019-05-15T00:02:44.024Z,0.00
2019-05-15T00:03:44.011Z,0.00
2019-05-15T00:04:43.999Z,0.00
2019-05-15T00:05:43.988Z,0.00
2019-05-15T00:06:43.974Z,0.00
2019-05-15T00:07:43.964Z,0.00
2019-05-15T00:08:43.949Z,0.00
2019-05-15T00:09:43.940Z,0.00
2019-05-15T00:10:43.927Z,0.00
2019-05-15T00:11:43.912Z,0.00
2019-05-15T00:12:43.901Z,0.00
2019-05-15T00:13:43.888Z,0.00
2019-05-15T00:14:43.874Z,0.00
2019-05-15T00:15:43.863Z,0.00
2019-05-15T00:16:43.853Z,0.00
2019-05-15T00:17:43.837Z,0.00
2019-05-15T00:18:43.824Z,0.00
2019-05-15T00:19:43.812Z,0.00
2019-05-15T00:20:43.838Z,0.00
2019-05-15T00:21:43.788Z,0.00
2019-05-15T00:22:43.774Z,0.00
2019-05-15T00:23:43.762Z,0.00
2019-05-15T00:24:43.750Z,0.00
2019-05-15T00:25:43.744Z,0.00
2019-05-15T00:26:43.724Z,0.00
2019-05-15T00:27:43.712Z,0.00
2019-05-15T00:28:43.700Z,0.00
2019-05-15T00:29:43.688Z,0.00
2019-05-15T00:30:43.674Z,0.00
2019-05-15T00:31:43.661Z,0.00
2019-05-15T00:32:43.648Z,0.00
2019-05-15T00:33:43.636Z,0.00
2019-05-15T00:34:43.622Z,0.00
2019-05-15T00:35:43.610Z,0.00
2019-05-15T00:36:43.599Z,0.00
2019-05-15T00:37:43.585Z,0.00
2019-05-15T00:38:43.571Z,0.00
2019-05-15T00:39:43.559Z,0.00
2019-05-15T00:40:43.546Z,0.00
2019-05-15T00:41:53.380Z,0.00
2019-05-15T00:42:43.522Z,0.00
2019-05-15T00:43:43.509Z,0.00
2019-05-15T00:44:43.500Z,0.00
2019-05-15T00:45:44.474Z,0.00
2019-05-15T00:46:43.470Z,0.00
2019-05-15T00:47:43.456Z,0.00
2019-05-15T00:48:43.445Z,0.00
2019-05-15T00:49:43.431Z,0.00
2019-05-15T00:50:43.417Z,0.00
2019-05-15T00:51:43.405Z,0.00
2019-05-15T00:52:43.394Z,0.00
2019-05-15T00:53:43.379Z,0.00
2019-05-15T00:54:43.377Z,0.00
2019-05-15T00:55:43.353Z,0.00
2019-05-15T00:56:43.340Z,0.00
2019-05-15T00:57:43.328Z,0.00
2019-05-15T00:58:43.314Z,0.00
2019-05-15T00:59:43.304Z,0.00
2019-05-15T01:00:43.299Z,0.00
2019-05-15T01:01:43.277Z,0.00
2019-05-15T01:02:43.263Z,0.00
2019-05-15T01:03:43.254Z,0.00
2019-05-15T01:04:43.238Z,0.00
2019-05-15T01:05:43.226Z,0.00
2019-05-15T01:06:43.214Z,0.00
2019-05-15T01:07:43.199Z,0.00
2019-05-15T01:08:43.196Z,0.00
2019-05-15T01:09:43.179Z,0.00
2019-05-15T01:10:43.172Z,0.00
2019-05-15T01:11:43.148Z,0.00
2019-05-15T01:12:43.135Z,0.00
2019-05-15T01:13:43.124Z,0.00
2019-05-15T01:14:43.108Z,0.00
2019-05-15T01:15:43.095Z,0.00
2019-05-15T01:16:43.086Z,0.00
2019-05-15T01:17:43.071Z,0.00
2019-05-15T01:18:43.057Z,0.00
2019-05-15T01:19:43.044Z,0.00
2019-05-15T01:20:43.039Z,0.00
2019-05-15T01:21:43.019Z,0.00
2019-05-15T01:22:43.005Z,0.00
2019-05-15T01:23:42.993Z,0.00
2019-05-15T01:24:42.979Z,0.00
2019-05-15T01:25:42.966Z,0.00
2019-05-15T01:26:42.953Z,0.00
2019-05-15T01:27:42.940Z,0.00
2019-05-15T01:28:42.928Z,0.00
2019-05-15T01:29:45.089Z,0.00
2019-05-15T01:30:42.905Z,0.00
2019-05-15T01:31:42.889Z,0.00
2019-05-15T01:32:42.874Z,0.00
2019-05-15T01:33:42.862Z,0.00
2019-05-15T01:34:42.848Z,0.00
2019-05-15T01:35:42.835Z,0.00
2019-05-15T01:36:42.822Z,0.00
2019-05-15T01:37:42.809Z,0.00
2019-05-15T01:38:42.796Z,0.00
2019-05-15T01:39:42.783Z,0.00
2019-05-15T01:40:42.769Z,0.00
2019-05-15T01:41:42.757Z,0.00
2019-05-15T01:42:42.743Z,0.00
2019-05-15T01:43:42.730Z,0.00
2019-05-15T01:44:42.718Z,0.00
2019-05-15T01:45:42.704Z,0.00
2019-05-15T01:46:42.689Z,0.00
2019-05-15T01:47:42.683Z,0.00
2019-05-15T01:48:42.665Z,0.00
2019-05-15T01:49:42.650Z,0.00
2019-05-15T01:50:42.641Z,0.00
2019-05-15T01:51:42.623Z,0.00
2019-05-15T01:52:42.614Z,0.00
2019-05-15T01:53:42.597Z,0.00
2019-05-15T01:54:42.583Z,0.00
2019-05-15T01:55:42.571Z,0.00
2019-05-15T01:56:42.557Z,0.00
2019-05-15T01:57:42.544Z,0.00
2019-05-15T01:58:42.530Z,0.00
2019-05-15T01:59:53.955Z,0.00
2019-05-15T02:00:42.504Z,0.00
2019-05-15T02:01:42.492Z,0.00
2019-05-15T02:02:42.477Z,0.00
2019-05-15T02:03:42.463Z,0.00
2019-05-15T02:04:42.451Z,0.00
2019-05-15T02:05:42.437Z,0.00
2019-05-15T02:06:42.423Z,0.00
2019-05-15T02:07:42.410Z,0.00
2019-05-15T02:08:42.398Z,0.00
2019-05-15T02:09:42.385Z,0.00
2019-05-15T02:10:42.374Z,0.00
2019-05-15T02:11:42.356Z,0.00
2019-05-15T02:12:42.345Z,0.00
2019-05-15T02:13:42.332Z,0.00
2019-05-15T02:14:42.316Z,0.00
2019-05-15T02:15:42.302Z,0.00
2019-05-15T02:16:42.288Z,0.00
2019-05-15T02:17:42.277Z,0.00
2019-05-15T02:18:42.261Z,0.00
2019-05-15T02:19:42.248Z,0.00
2019-05-15T02:20:42.247Z,0.00
2019-05-15T02:21:42.220Z,0.00
2019-05-15T02:22:42.702Z,0.00
2019-05-15T02:23:42.196Z,0.00
2019-05-15T02:24:42.181Z,0.00
2019-05-15T02:25:42.167Z,0.00
2019-05-15T02:26:42.152Z,0.00
2019-05-15T02:27:42.140Z,0.00
2019-05-15T02:28:42.126Z,0.00
2019-05-15T02:29:42.114Z,0.00
2019-05-15T02:30:42.100Z,0.00
2019-05-15T02:31:42.086Z,0.00
2019-05-15T02:32:42.080Z,0.00
2019-05-15T02:33:42.059Z,0.00
2019-05-15T02:34:42.048Z,0.00
2019-05-15T02:35:42.032Z,0.00
2019-05-15T02:36:42.018Z,0.00
2019-05-15T02:37:42.004Z,0.00
2019-05-15T02:38:41.990Z,0.00
2019-05-15T02:39:41.977Z,0.00
2019-05-15T02:40:41.963Z,0.00
2019-05-15T02:41:41.950Z,0.00
2019-05-15T02:42:41.937Z,0.00
2019-05-15T02:43:41.924Z,0.00
2019-05-15T02:44:41.909Z,0.00
2019-05-15T02:45:42.737Z,0.00
2019-05-15T02:46:41.883Z,0.00
2019-05-15T02:47:41.867Z,0.00
2019-05-15T02:48:41.858Z,0.00
2019-05-15T02:49:41.841Z,0.00
2019-05-15T02:50:41.826Z,0.00
2019-05-15T02:51:41.813Z,0.00
2019-05-15T02:52:45.214Z,0.00
2019-05-15T02:53:41.786Z,0.00
2019-05-15T02:54:41.772Z,0.00
2019-05-15T02:55:41.764Z,0.00
2019-05-15T02:56:41.747Z,0.00
2019-05-15T02:57:41.735Z,0.00
2019-05-15T02:58:41.718Z,0.00
2019-05-15T02:59:41.712Z,0.00
2019-05-15T03:00:48.391Z,0.00
2019-05-15T03:01:41.678Z,0.00
2019-05-15T03:02:41.804Z,0.00
2019-05-15T03:03:41.652Z,0.00
2019-05-15T03:04:41.636Z,0.00
2019-05-15T03:05:41.630Z,0.00
2019-05-15T03:06:41.608Z,0.00
2019-05-15T03:07:41.596Z,0.00
2019-05-15T03:08:41.583Z,0.00
2019-05-15T03:09:41.569Z,0.00
2019-05-15T03:10:41.557Z,4.00
2019-05-15T03:11:41.541Z,4.00
2019-05-15T03:12:41.528Z,0.00
2019-05-15T03:13:41.514Z,0.00
2019-05-15T03:14:41.499Z,4.00
2019-05-15T03:15:41.505Z,4.00
2019-05-15T03:16:41.494Z,4.00
2019-05-15T03:17:41.468Z,4.00
2019-05-15T03:18:41.444Z,4.00
2019-05-15T03:19:41.430Z,8.00
2019-05-15T03:20:41.418Z,8.00
2019-05-15T03:21:41.404Z,8.00
2019-05-15T03:22:41.390Z,12.00
2019-05-15T03:23:41.376Z,12.00
2019-05-15T03:24:41.372Z,12.00
2019-05-15T03:25:41.348Z,12.00
2019-05-15T03:26:41.335Z,16.00
2019-05-15T03:27:41.322Z,20.00
2019-05-15T03:28:41.309Z,20.00
2019-05-15T03:29:41.296Z,24.00
2019-05-15T03:31:12.235Z,24.00
2019-05-15T03:31:59.155Z,32.00
2019-05-15T03:32:52.299Z,36.00
2019-05-15T03:33:45.677Z,40.00
2019-05-15T03:34:47.402Z,44.00
2019-05-15T03:35:43.894Z,52.00
2019-05-15T03:36:45.446Z,52.00
2019-05-15T03:37:41.196Z,60.00
2019-05-15T03:38:41.168Z,72.00
2019-05-15T03:39:41.154Z,76.00
2019-05-15T03:40:41.148Z,84.00
2019-05-15T03:41:41.134Z,96.00
2019-05-15T03:42:41.111Z,100.00
2019-05-15T03:43:41.098Z,116.00
2019-05-15T03:44:41.085Z,124.00
2019-05-15T03:45:41.071Z,136.00
2019-05-15T03:46:41.111Z,144.00
2019-05-15T03:47:41.042Z,160.00
2019-05-15T03:48:41.027Z,172.00
2019-05-15T03:49:41.025Z,188.00
2019-05-15T03:50:41.000Z,204.00
2019-05-15T03:51:45.435Z,220.00
2019-05-15T03:52:40.973Z,232.00
2019-05-15T03:53:40.965Z,252.00
2019-05-15T03:54:40.947Z,268.00
2019-05-15T03:55:41.080Z,288.00
2019-05-15T03:56:40.920Z,308.00
2019-05-15T03:57:40.902Z,324.00
2019-05-15T03:58:40.889Z,344.00
2019-05-15T03:59:40.876Z,364.00
2019-05-15T04:00:40.861Z,384.00
2019-05-15T04:01:43.818Z,408.00
2019-05-15T04:02:40.833Z,432.00
2019-05-15T04:03:40.822Z,456.00
2019-05-15T04:04:40.809Z,476.00
2019-05-15T04:05:40.798Z,504.00
2019-05-15T04:06:40.778Z,528.00
2019-05-15T04:07:40.764Z,552.00
2019-05-15T04:08:40.754Z,576.00
2019-05-15T04:09:40.737Z,604.00
2019-05-15T04:10:40.729Z,624.00
2019-05-15T04:11:40.708Z,652.00
2019-05-15T04:12:40.974Z,680.00
2019-05-15T04:13:40.681Z,708.00
2019-05-15T04:14:40.668Z,732.00
2019-05-15T04:15:40.652Z,756.00
2019-05-15T04:16:40.639Z,784.00
2019-05-15T04:17:40.809Z,812.00
2019-05-15T04:18:40.610Z,840.00
2019-05-15T04:19:40.597Z,868.00
2019-05-15T04:20:41.070Z,892.00
2019-05-15T04:21:44.593Z,920.00
2019-05-15T04:22:40.713Z,948.00
2019-05-15T04:23:40.547Z,976.00
2019-05-15T04:24:40.533Z,1004.00
2019-05-15T04:25:40.519Z,1036.00
2019-05-15T04:26:40.501Z,1060.00
2019-05-15T04:27:40.510Z,1084.00
2019-05-15T04:28:41.590Z,1112.00
2019-05-15T04:29:40.461Z,1140.00
2019-05-15T04:30:40.446Z,1168.00
2019-05-15T04:31:51.763Z,1192.00
2019-05-15T04:32:40.663Z,1220.00
2019-05-15T04:33:40.588Z,1244.00
2019-05-15T04:34:40.387Z,1272.00
2019-05-15T04:35:40.674Z,1300.00
2019-05-15T04:36:44.300Z,1332.00
2019-05-15T04:37:41.145Z,1356.00
2019-05-15T04:38:40.332Z,1388.00
2019-05-15T04:39:40.357Z,1420.00
2019-05-15T04:40:40.305Z,1444.00
2019-05-15T04:41:40.303Z,1464.00
2019-05-15T04:42:40.284Z,1480.00
2019-05-15T04:43:45.075Z,1500.00
2019-05-15T04:44:40.251Z,1520.00
2019-05-15T04:45:40.241Z,1536.00
2019-05-15T04:46:40.223Z,1556.00
2019-05-15T04:47:40.385Z,1580.00
2019-05-15T04:48:40.454Z,1600.00
2019-05-15T04:49:40.187Z,1620.00
2019-05-15T04:50:40.528Z,1640.00
2019-05-15T04:51:40.157Z,1660.00
2019-05-15T04:52:43.407Z,1676.00
2019-05-15T04:53:40.155Z,1696.00
2019-05-15T04:54:40.493Z,1716.00
2019-05-15T04:55:40.900Z,1740.00
2019-05-15T04:56:40.313Z,1756.00
2019-05-15T04:57:40.951Z,1784.00
2019-05-15T04:58:40.057Z,1808.00
2019-05-15T04:59:40.056Z,1832.00
2019-05-15T05:00:40.209Z,1856.00
2019-05-15T05:01:40.587Z,1876.00
2019-05-15T05:02:40.750Z,1896.00
2019-05-15T05:03:39.989Z,1920.00
2019-05-15T05:04:39.977Z,1944.00
2019-05-15T05:05:39.985Z,1972.00
2019-05-15T05:06:39.951Z,1992.00
2019-05-15T05:07:40.072Z,2008.00
2019-05-15T05:08:40.246Z,2028.00
2019-05-15T05:09:39.912Z,2044.00
2019-05-15T05:10:39.896Z,2052.00
2019-05-15T05:11:39.884Z,2068.00
2019-05-15T05:12:41.812Z,2088.00
2019-05-15T05:13:39.857Z,2116.00
2019-05-15T05:14:39.842Z,2144.00
2019-05-15T05:15:39.830Z,2176.00
2019-05-15T05:16:39.818Z,2200.00
2019-05-15T05:17:39.805Z,2232.00
2019-05-15T05:18:41.681Z,2256.00
2019-05-15T05:19:40.340Z,2284.00
2019-05-15T05:20:39.763Z,2320.00
2019-05-15T05:21:39.750Z,2356.00
2019-05-15T05:22:39.806Z,2400.00
2019-05-15T05:23:39.723Z,2440.00
2019-05-15T05:24:39.712Z,2476.00
2019-05-15T05:25:39.697Z,2516.00
2019-05-15T05:26:39.684Z,2552.00
2019-05-15T05:27:39.674Z,2588.00
2019-05-15T05:28:39.657Z,2620.00
2019-05-15T05:29:39.645Z,2652.00
2019-05-15T05:30:39.632Z,2692.00
2019-05-15T05:31:39.618Z,2724.00
2019-05-15T05:32:39.606Z,2760.00
2019-05-15T05:33:39.592Z,2792.00
2019-05-15T05:34:39.581Z,2820.00
2019-05-15T05:35:39.566Z,2848.00
2019-05-15T05:36:39.555Z,2876.00
2019-05-15T05:37:39.548Z,2904.00
2019-05-15T05:38:39.529Z,2936.00
2019-05-15T05:39:39.673Z,2964.00
2019-05-15T05:40:39.508Z,2988.00
2019-05-15T05:41:39.492Z,3016.00
2019-05-15T05:42:39.478Z,3036.00
2019-05-15T05:43:39.467Z,3060.00
2019-05-15T05:44:42.649Z,3076.00
2019-05-15T05:45:39.443Z,3100.00
2019-05-15T05:46:39.828Z,3128.00
2019-05-15T05:47:39.417Z,3156.00
2019-05-15T05:48:39.405Z,3184.00
2019-05-15T05:49:39.394Z,3216.00
2019-05-15T05:50:39.381Z,3244.00
2019-05-15T05:51:39.370Z,3276.00
2019-05-15T05:52:39.396Z,3304.00
2019-05-15T05:53:39.345Z,3332.00
2019-05-15T05:54:39.336Z,3356.00
2019-05-15T05:55:39.324Z,3384.00
2019-05-15T05:56:39.311Z,3412.00
2019-05-15T05:57:39.298Z,3436.00
2019-05-15T05:58:39.367Z,3464.00
2019-05-15T05:59:39.274Z,3496.00
2019-05-15T06:00:39.423Z,3532.00
2019-05-15T06:01:43.877Z,3560.00
2019-05-15T06:02:47.457Z,3580.00
2019-05-15T06:03:39.228Z,3608.00
2019-05-15T06:04:39.219Z,3632.00
2019-05-15T06:05:39.206Z,3656.00
2019-05-15T06:06:39.193Z,3680.00
2019-05-15T06:07:39.183Z,3720.00
2019-05-15T06:08:39.200Z,3748.00
2019-05-15T06:09:39.160Z,3784.00
2019-05-15T06:10:39.151Z,3808.00
2019-05-15T06:11:39.138Z,3828.00
2019-05-15T06:12:39.231Z,3860.00
2019-05-15T06:13:39.120Z,3896.00
2019-05-15T06:14:39.204Z,3924.00
2019-05-15T06:15:39.105Z,3952.00
2019-05-15T06:16:39.085Z,3996.00
2019-05-15T06:17:39.561Z,4044.00
2019-05-15T06:18:39.154Z,4064.00
2019-05-15T06:19:39.050Z,4100.00
2019-05-15T06:20:39.586Z,4152.00
2019-05-15T06:21:52.520Z,4180.00
2019-05-15T06:22:39.068Z,4212.00
2019-05-15T06:23:45.127Z,4244.00
2019-05-15T06:24:38.995Z,4276.00
2019-05-15T06:25:39.202Z,4452.00
2019-05-15T06:26:38.973Z,4548.00
2019-05-15T06:27:39.376Z,4404.00
2019-05-15T06:28:39.629Z,4384.00
2019-05-15T06:29:38.941Z,4408.00
2019-05-15T06:30:38.930Z,4440.00
2019-05-15T06:31:39.024Z,4468.00
2019-05-15T06:32:39.825Z,4500.00
2019-05-15T06:33:38.902Z,4528.00
2019-05-15T06:34:38.889Z,4560.00
2019-05-15T06:35:39.542Z,7572.00
2019-05-15T06:36:39.422Z,6012.00
2019-05-15T06:37:39.830Z,5024.00
2019-05-15T06:38:39.463Z,4744.00
2019-05-15T06:39:39.213Z,4804.00
2019-05-15T06:40:39.529Z,5804.00
2019-05-15T06:41:39.185Z,6484.00
2019-05-15T06:42:39.631Z,10944.00
2019-05-15T06:43:39.144Z,16704.00
2019-05-15T06:44:38.985Z,11336.00
2019-05-15T06:45:38.776Z,6736.00
2019-05-15T06:46:39.250Z,8360.00
2019-05-15T06:47:39.592Z,10256.00
2019-05-15T06:48:38.745Z,6172.00
2019-05-15T06:49:38.736Z,6948.00
2019-05-15T06:50:38.727Z,9616.00
2019-05-15T06:51:38.716Z,21984.00
2019-05-15T06:52:38.707Z,22752.00
2019-05-15T06:53:38.744Z,8228.00
2019-05-15T06:54:38.687Z,6320.00
2019-05-15T06:55:39.009Z,9088.00
2019-05-15T06:56:39.067Z,22080.00
2019-05-15T06:57:39.670Z,50496.00
2019-05-15T06:58:38.827Z,65824.00
2019-05-15T06:59:39.014Z,70720.00
2019-05-15T07:00:39.233Z,72384.00
2019-05-15T07:01:38.770Z,72704.00
2019-05-15T07:02:38.642Z,73216.00
2019-05-15T07:03:39.492Z,74336.00
2019-05-15T07:04:38.605Z,72832.00
2019-05-15T07:05:38.748Z,71264.00
2019-05-15T07:06:38.580Z,72128.00
2019-05-15T07:07:39.008Z,72160.00
2019-05-15T07:08:38.569Z,69376.00
2019-05-15T07:09:38.559Z,69664.00
2019-05-15T07:10:38.555Z,71456.00
2019-05-15T07:11:38.899Z,69920.00
2019-05-15T07:12:39.315Z,71968.00
2019-05-15T07:13:38.613Z,77472.00
2019-05-15T07:14:38.535Z,77280.00
2019-05-15T07:15:38.624Z,75968.00
2019-05-15T07:16:39.137Z,77152.00
2019-05-15T07:17:39.282Z,74304.00
2019-05-15T07:18:39.228Z,76256.00
2019-05-15T07:19:39.352Z,78464.00
2019-05-15T07:20:39.113Z,73888.00
2019-05-15T07:21:38.942Z,76768.00
2019-05-15T07:22:39.166Z,77408.00
2019-05-15T07:23:38.912Z,77120.00
2019-05-15T07:24:38.502Z,78688.00
2019-05-15T07:25:39.097Z,79200.00
2019-05-15T07:26:39.183Z,78112.00
2019-05-15T07:27:39.267Z,79584.00
2019-05-15T07:28:38.497Z,82784.00
2019-05-15T07:29:38.704Z,82336.00
2019-05-15T07:30:41.118Z,84672.00
2019-05-15T07:31:38.638Z,84448.00
2019-05-15T07:32:39.669Z,82304.00
2019-05-15T07:33:43.168Z,80160.00
2019-05-15T07:34:38.494Z,82336.00
2019-05-15T07:35:38.692Z,83232.00
2019-05-15T07:36:38.973Z,82528.00
2019-05-15T07:37:39.010Z,85696.00
2019-05-15T07:38:39.187Z,85664.00
2019-05-15T07:39:38.495Z,85504.00
2019-05-15T07:40:39.643Z,88576.00
2019-05-15T07:41:39.211Z,83328.00
2019-05-15T07:42:38.998Z,87648.00
2019-05-15T07:43:38.577Z,90528.00
2019-05-15T07:44:38.970Z,80288.00
2019-05-15T07:45:43.636Z,87776.00
2019-05-15T07:46:38.501Z,92960.00
2019-05-15T07:47:38.951Z,86144.00
2019-05-15T07:48:38.676Z,92256.00
2019-05-15T07:49:38.948Z,91136.00
2019-05-15T07:50:38.955Z,89568.00
2019-05-15T07:51:38.510Z,90368.00
2019-05-15T07:52:39.442Z,87744.00
2019-05-15T07:53:38.704Z,87008.00
2019-05-15T07:54:38.562Z,92864.00
2019-05-15T07:55:39.327Z,89216.00
2019-05-15T07:56:38.523Z,90624.00
2019-05-15T07:57:39.275Z,95584.00
2019-05-15T07:58:38.839Z,89984.00
2019-05-15T07:59:38.786Z,90400.00
2019-05-15T08:00:39.529Z,89728.00
2019-05-15T08:01:38.812Z,87552.00
2019-05-15T08:02:38.541Z,89184.00
2019-05-15T08:03:55.090Z,88160.00
2019-05-15T08:04:38.555Z,91552.00
2019-05-15T08:05:54.658Z,87616.00
2019-05-15T08:06:38.929Z,93440.00
2019-05-15T08:07:38.949Z,91040.00
2019-05-15T08:08:39.324Z,91104.00
2019-05-15T08:09:39.101Z,86496.00
2019-05-15T08:10:39.619Z,86976.00
2019-05-15T08:11:39.245Z,85472.00
2019-05-15T08:12:39.293Z,85760.00
2019-05-15T08:13:38.584Z,84160.00
2019-05-15T08:14:38.939Z,87040.00
2019-05-15T08:15:38.592Z,87616.00
2019-05-15T08:16:39.570Z,86304.00
2019-05-15T08:17:59.011Z,89376.00
2019-05-15T08:18:39.386Z,89824.00
2019-05-15T08:19:38.651Z,87552.00
2019-05-15T08:20:38.663Z,92608.00
2019-05-15T08:21:38.773Z,92544.00
2019-05-15T08:22:38.623Z,93632.00
2019-05-15T08:23:39.103Z,99712.00
2019-05-15T08:24:39.114Z,93600.00
2019-05-15T08:25:38.998Z,100096.00
2019-05-15T08:26:42.484Z,102432.00
2019-05-15T08:27:38.645Z,100896.00
2019-05-15T08:28:38.656Z,96896.00
2019-05-15T08:29:38.655Z,101888.00
2019-05-15T08:30:39.044Z,100512.00
2019-05-15T08:31:38.991Z,99040.00
2019-05-15T08:32:39.040Z,100832.00
2019-05-15T08:33:39.056Z,99072.00
2019-05-15T08:34:38.784Z,103936.00
2019-05-15T08:35:38.838Z,102176.00
2019-05-15T08:36:38.696Z,97920.00
2019-05-15T08:37:38.695Z,97024.00
2019-05-15T08:38:38.698Z,104640.00
2019-05-15T08:39:38.704Z,95040.00
2019-05-15T08:40:41.117Z,97728.00
2019-05-15T08:41:39.198Z,106688.00
2019-05-15T08:42:41.511Z,96160.00
2019-05-15T08:43:38.724Z,95680.00
2019-05-15T08:44:38.860Z,99296.00
2019-05-15T08:45:39.214Z,98336.00
2019-05-15T08:46:38.912Z,96640.00
2019-05-15T08:47:38.803Z,97728.00
2019-05-15T08:48:38.749Z,94400.00
2019-05-15T08:49:40.891Z,87424.00
2019-05-15T08:50:39.126Z,98816.00
2019-05-15T08:51:38.767Z,99232.00
2019-05-15T08:52:39.385Z,92256.00
2019-05-15T08:53:38.775Z,101600.00
2019-05-15T08:54:38.779Z,99680.00
2019-05-15T08:55:39.200Z,104800.00
2019-05-15T08:56:39.404Z,105728.00
2019-05-15T08:57:38.796Z,118496.00
2019-05-15T08:58:38.800Z,110784.00
2019-05-15T08:59:38.812Z,109024.00
2019-05-15T09:00:40.147Z,113088.00
2019-05-15T09:01:38.816Z,117472.00
2019-05-15T09:02:38.836Z,126976.00
2019-05-15T09:03:38.827Z,104608.00
2019-05-15T09:04:38.861Z,119840.00
2019-05-15T09:05:39.002Z,115296.00
2019-05-15T09:06:41.357Z,107136.00
2019-05-15T09:07:38.849Z,109280.00
2019-05-15T09:08:39.384Z,125696.00
2019-05-15T09:09:38.864Z,110816.00
2019-05-15T09:10:38.865Z,103520.00
2019-05-15T09:11:39.470Z,116704.00
2019-05-15T09:12:39.118Z,109440.00
2019-05-15T09:13:43.508Z,120064.00
2019-05-15T09:14:38.885Z,113504.00
2019-05-15T09:15:39.655Z,127424.00
2019-05-15T09:16:38.985Z,120896.00
2019-05-15T09:17:39.824Z,118944.00
2019-05-15T09:18:39.235Z,110080.00
2019-05-15T09:19:38.933Z,120000.00
2019-05-15T09:20:38.921Z,117696.00
2019-05-15T09:21:39.030Z,104480.00
2019-05-15T09:22:38.927Z,103648.00
2019-05-15T09:23:39.137Z,115712.00
2019-05-15T09:24:38.937Z,108320.00
2019-05-15T09:25:39.098Z,112320.00
2019-05-15T09:26:40.385Z,111936.00
2019-05-15T09:27:38.956Z,113920.00
2019-05-15T09:28:39.358Z,109056.00
2019-05-15T09:29:38.968Z,104512.00
2019-05-15T09:30:39.248Z,120256.00
2019-05-15T09:31:39.322Z,109792.00
2019-05-15T09:32:39.482Z,107264.00
2019-05-15T09:33:39.009Z,119296.00
2019-05-15T09:34:50.851Z,123136.00
2019-05-15T09:35:39.459Z,116096.00
2019-05-15T09:36:42.260Z,120096.00
2019-05-15T09:37:39.021Z,120832.00
2019-05-15T09:38:39.335Z,122848.00
2019-05-15T09:39:39.041Z,113760.00
2019-05-15T09:40:45.948Z,106112.00
2019-05-15T09:41:39.048Z,105760.00
2019-05-15T09:42:39.071Z,102464.00
2019-05-15T09:43:42.192Z,97696.00
2019-05-15T09:44:39.254Z,100736.00
2019-05-15T09:45:39.077Z,103808.00
2019-05-15T09:46:39.081Z,101632.00
2019-05-15T09:47:39.790Z,102400.00
2019-05-15T09:48:39.269Z,112096.00
2019-05-15T09:49:39.244Z,100640.00
2019-05-15T09:50:39.645Z,107680.00
2019-05-15T09:51:39.125Z,106528.00
2019-05-15T09:52:39.273Z,107136.00
2019-05-15T09:53:39.663Z,116512.00
2019-05-15T09:54:39.184Z,103616.00
2019-05-15T09:55:39.143Z,109632.00
2019-05-15T09:56:39.150Z,113952.00
2019-05-15T09:57:39.194Z,102432.00
2019-05-15T09:58:39.164Z,116032.00
2019-05-15T09:59:39.285Z,103328.00
2019-05-15T10:00:39.181Z,103200.00
2019-05-15T10:01:39.611Z,103552.00
2019-05-15T10:02:39.703Z,103360.00
2019-05-15T10:03:44.077Z,104928.00
2019-05-15T10:04:39.209Z,105184.00
2019-05-15T10:05:39.213Z,105472.00
2019-05-15T10:06:39.270Z,95552.00
2019-05-15T10:07:40.428Z,99040.00
2019-05-15T10:08:39.941Z,97216.00
2019-05-15T10:09:39.242Z,95712.00
2019-05-15T10:10:39.250Z,94240.00
2019-05-15T10:11:39.257Z,88256.00
2019-05-15T10:12:39.272Z,88288.00
2019-05-15T10:13:39.273Z,87008.00
2019-05-15T10:14:39.277Z,90560.00
2019-05-15T10:15:39.286Z,92864.00
2019-05-15T10:16:39.292Z,92256.00
2019-05-15T10:17:39.308Z,89504.00
2019-05-15T10:18:39.452Z,92032.00
2019-05-15T10:19:39.321Z,87712.00
2019-05-15T10:20:39.322Z,85472.00
2019-05-15T10:21:40.213Z,83808.00
2019-05-15T10:22:39.336Z,85312.00
2019-05-15T10:23:40.293Z,77664.00
2019-05-15T10:24:39.359Z,76832.00
2019-05-15T10:25:39.359Z,75936.00
2019-05-15T10:26:39.599Z,74208.00
2019-05-15T10:27:39.945Z,69568.00
2019-05-15T10:28:39.495Z,67264.00
2019-05-15T10:29:39.390Z,62112.00
2019-05-15T10:30:39.613Z,64352.00
2019-05-15T10:31:39.412Z,66400.00
2019-05-15T10:32:39.853Z,72288.00
2019-05-15T10:33:39.521Z,71744.00
2019-05-15T10:34:39.422Z,75072.00
2019-05-15T10:35:39.517Z,73760.00
2019-05-15T10:36:39.438Z,81120.00
2019-05-15T10:37:39.451Z,80704.00
2019-05-15T10:38:39.456Z,78336.00
2019-05-15T10:39:39.460Z,73344.00
2019-05-15T10:40:49.711Z,71200.00
2019-05-15T10:41:39.474Z,68672.00
2019-05-15T10:42:40.091Z,69536.00
2019-05-15T10:43:45.766Z,66560.00
2019-05-15T10:44:39.496Z,68608.00
2019-05-15T10:45:42.497Z,69312.00
2019-05-15T10:46:39.510Z,74080.00
2019-05-15T10:47:39.528Z,74080.00
2019-05-15T10:48:39.539Z,77152.00
2019-05-15T10:49:39.541Z,74560.00
2019-05-15T10:50:39.543Z,68768.00
2019-05-15T10:51:39.896Z,66784.00
2019-05-15T10:52:39.558Z,62592.00
2019-05-15T10:53:39.593Z,61728.00
2019-05-15T10:54:39.586Z,58496.00
2019-05-15T10:55:39.841Z,56896.00
2019-05-15T10:56:39.589Z,54944.00
2019-05-15T10:57:43.021Z,55936.00
2019-05-15T10:58:39.605Z,55808.00
2019-05-15T10:59:39.613Z,57792.00
2019-05-15T11:00:39.636Z,56992.00
2019-05-15T11:01:39.628Z,58720.00
2019-05-15T11:02:39.686Z,56928.00
2019-05-15T11:03:40.153Z,56960.00
2019-05-15T11:04:39.651Z,55680.00
2019-05-15T11:05:45.332Z,53824.00
2019-05-15T11:06:39.667Z,51264.00
2019-05-15T11:07:39.696Z,49024.00
2019-05-15T11:08:40.629Z,51520.00
2019-05-15T11:09:40.645Z,50560.00
2019-05-15T11:10:41.931Z,52096.00
2019-05-15T11:11:39.708Z,51232.00
2019-05-15T11:12:39.717Z,52576.00
2019-05-15T11:13:39.727Z,51296.00
2019-05-15T11:14:39.732Z,52480.00
2019-05-15T11:15:42.568Z,52064.00
2019-05-15T11:16:39.749Z,51648.00
2019-05-15T11:17:39.758Z,53984.00
2019-05-15T11:18:39.967Z,52480.00
2019-05-15T11:19:40.795Z,54720.00
2019-05-15T11:20:41.297Z,56576.00
2019-05-15T11:21:43.356Z,58560.00
2019-05-15T11:22:42.883Z,57216.00
2019-05-15T11:23:42.630Z,54848.00
2019-05-15T11:24:39.813Z,59136.00
2019-05-15T11:25:39.818Z,54976.00
2019-05-15T11:26:39.826Z,54400.00
2019-05-15T11:27:39.837Z,53536.00
2019-05-15T11:28:39.842Z,52416.00
2019-05-15T11:29:39.850Z,53920.00
2019-05-15T11:30:39.854Z,55328.00
2019-05-15T11:31:39.862Z,55392.00
2019-05-15T11:32:39.870Z,56768.00
2019-05-15T11:33:39.898Z,55488.00
2019-05-15T11:34:39.891Z,56576.00
2019-05-15T11:35:56.448Z,57824.00
2019-05-15T11:36:39.899Z,55808.00
2019-05-15T11:37:45.331Z,54176.00
2019-05-15T11:38:39.914Z,53088.00
2019-05-15T11:39:45.774Z,52320.00
2019-05-15T11:40:39.928Z,52448.00
2019-05-15T11:41:39.935Z,53760.00
2019-05-15T11:42:39.942Z,52992.00
2019-05-15T11:43:39.958Z,53952.00
2019-05-15T11:44:39.956Z,54688.00
2019-05-15T11:45:39.964Z,54016.00
2019-05-15T11:46:39.971Z,52864.00
2019-05-15T11:47:40.395Z,51488.00
2019-05-15T11:48:39.987Z,52096.00
2019-05-15T11:49:39.995Z,53408.00
2019-05-15T11:50:40.306Z,53280.00
2019-05-15T11:51:40.008Z,53088.00
2019-05-15T11:52:40.665Z,52704.00
2019-05-15T11:53:40.130Z,53088.00
2019-05-15T11:54:40.043Z,51232.00
2019-05-15T11:55:40.036Z,51552.00
2019-05-15T11:56:40.044Z,50752.00
2019-05-15T11:57:46.738Z,49408.00
2019-05-15T11:58:40.063Z,49600.00
2019-05-15T11:59:45.226Z,50880.00
2019-05-15T12:00:40.071Z,50720.00
2019-05-15T12:01:40.078Z,52736.00
2019-05-15T12:02:40.085Z,54432.00
2019-05-15T12:03:40.100Z,55488.00
2019-05-15T12:04:40.099Z,58208.00
2019-05-15T12:05:40.107Z,59200.00
2019-05-15T12:06:40.112Z,58176.00
2019-05-15T12:07:40.121Z,58720.00
2019-05-15T12:08:40.129Z,59648.00
2019-05-15T12:09:40.136Z,58208.00
2019-05-15T12:10:40.141Z,55168.00
2019-05-15T12:11:41.190Z,52896.00
2019-05-15T12:12:40.155Z,51296.00
2019-05-15T12:13:40.162Z,51872.00
2019-05-15T12:14:40.168Z,52640.00